sensor_id;sensor_type;location;lat;lon;timestamp;P1;durP1;ratioP1;P2;durP2;ratioP2
69783;SDS011;57054;51.978;4.498;2023-07-13T00:00:33;9.95;;;2.80;;
69783;SDS011;57054;51.978;4.498;2023-07-13T00:02:58;8.18;;;2.80;;
69783;SDS011;57054;51.978;4.498;2023-07-13T00:05:24;9.77;;;2.38;;
69783;SDS011;57054;51.978;4.498;2023-07-13T00:07:49;7.85;;;2.42;;
69783;SDS011;57054;51.978;4.498;2023-07-13T00:10:16;9.57;;;2.55;;
69783;SDS011;57054;51.978;4.498;2023-07-13T00:12:42;10.10;;;2.75;;
69783;SDS011;57054;51.978;4.498;2023-07-13T00:15:12;9.85;;;2.42;;
69783;SDS011;57054;51.978;4.498;2023-07-13T00:17:48;12.18;;;3.53;;
69783;SDS011;57054;51.978;4.498;2023-07-13T00:20:14;13.23;;;2.80;;
69783;SDS011;57054;51.978;4.498;2023-07-13T00:22:39;12.68;;;2.80;;
69783;SDS011;57054;51.978;4.498;2023-07-13T00:25:05;10.43;;;2.80;;
69783;SDS011;57054;51.978;4.498;2023-07-13T00:27:31;9.95;;;2.50;;
69783;SDS011;57054;51.978;4.498;2023-07-13T00:29:56;8.98;;;2.78;;
69783;SDS011;57054;51.978;4.498;2023-07-13T00:32:22;9.05;;;2.80;;
69783;SDS011;57054;51.978;4.498;2023-07-13T00:34:50;11.38;;;2.50;;
69783;SDS011;57054;51.978;4.498;2023-07-13T00:37:15;16.08;;;2.80;;
69783;SDS011;57054;51.978;4.498;2023-07-13T00:39:41;7.65;;;2.20;;
69783;SDS011;57054;51.978;4.498;2023-07-13T00:42:06;10.98;;;2.90;;
69783;SDS011;57054;51.978;4.498;2023-07-13T00:44:32;10.20;;;2.30;;
69783;SDS011;57054;51.978;4.498;2023-07-13T00:46:57;9.45;;;2.55;;
69783;SDS011;57054;51.978;4.498;2023-07-13T00:49:24;10.18;;;2.38;;
69783;SDS011;57054;51.978;4.498;2023-07-13T00:51:56;9.88;;;2.30;;
69783;SDS011;57054;51.978;4.498;2023-07-13T00:54:28;11.40;;;2.58;;
69783;SDS011;57054;51.978;4.498;2023-07-13T00:56:58;13.27;;;3.03;;
69783;SDS011;57054;51.978;4.498;2023-07-13T00:59:26;11.77;;;2.47;;
69783;SDS011;57054;51.978;4.498;2023-07-13T01:04:30;12.65;;;3.00;;
69783;SDS011;57054;51.978;4.498;2023-07-13T01:06:56;8.88;;;2.13;;
69783;SDS011;57054;51.978;4.498;2023-07-13T01:09:22;9.23;;;2.08;;
69783;SDS011;57054;51.978;4.498;2023-07-13T01:11:48;8.25;;;2.22;;
69783;SDS011;57054;51.978;4.498;2023-07-13T01:14:14;10.68;;;2.25;;
69783;SDS011;57054;51.978;4.498;2023-07-13T01:16:40;7.07;;;2.03;;
69783;SDS011;57054;51.978;4.498;2023-07-13T01:19:32;8.88;;;2.60;;
69783;SDS011;57054;51.978;4.498;2023-07-13T01:22:09;14.18;;;2.53;;
69783;SDS011;57054;51.978;4.498;2023-07-13T01:24:36;9.20;;;2.05;;
69783;SDS011;57054;51.978;4.498;2023-07-13T01:27:03;5.28;;;1.65;;
69783;SDS011;57054;51.978;4.498;2023-07-13T01:29:31;6.70;;;1.90;;
69783;SDS011;57054;51.978;4.498;2023-07-13T01:31:58;4.68;;;1.85;;
69783;SDS011;57054;51.978;4.498;2023-07-13T01:34:25;6.38;;;1.80;;
69783;SDS011;57054;51.978;4.498;2023-07-13T01:36:50;5.80;;;1.70;;
69783;SDS011;57054;51.978;4.498;2023-07-13T01:39:20;2.53;;;1.30;;
69783;SDS011;57054;51.978;4.498;2023-07-13T01:41:46;5.70;;;1.42;;
69783;SDS011;57054;51.978;4.498;2023-07-13T01:44:11;4.90;;;1.40;;
69783;SDS011;57054;51.978;4.498;2023-07-13T01:46:37;4.18;;;1.17;;
69783;SDS011;57054;51.978;4.498;2023-07-13T01:49:02;3.25;;;1.52;;
69783;SDS011;57054;51.978;4.498;2023-07-13T01:51:28;3.10;;;0.82;;
69783;SDS011;57054;51.978;4.498;2023-07-13T01:53:53;1.95;;;0.85;;
69783;SDS011;57054;51.978;4.498;2023-07-13T01:56:19;2.88;;;1.30;;
69783;SDS011;57054;51.978;4.498;2023-07-13T01:58:45;2.53;;;0.95;;
69783;SDS011;57054;51.978;4.498;2023-07-13T02:01:10;5.15;;;1.40;;
69783;SDS011;57054;51.978;4.498;2023-07-13T02:03:36;0.98;;;0.80;;
69783;SDS011;57054;51.978;4.498;2023-07-13T02:06:01;1.30;;;1.15;;
69783;SDS011;57054;51.978;4.498;2023-07-13T02:08:27;1.83;;;0.95;;
69783;SDS011;57054;51.978;4.498;2023-07-13T02:10:52;4.88;;;1.27;;
69783;SDS011;57054;51.978;4.498;2023-07-13T02:13:19;2.72;;;0.90;;
69783;SDS011;57054;51.978;4.498;2023-07-13T02:15:45;3.30;;;1.67;;
69783;SDS011;57054;51.978;4.498;2023-07-13T02:18:11;2.58;;;0.93;;
69783;SDS011;57054;51.978;4.498;2023-07-13T02:20:42;2.65;;;0.98;;
69783;SDS011;57054;51.978;4.498;2023-07-13T02:23:07;3.13;;;1.10;;
69783;SDS011;57054;51.978;4.498;2023-07-13T02:25:33;3.10;;;1.02;;
69783;SDS011;57054;51.978;4.498;2023-07-13T02:27:58;3.80;;;1.77;;
69783;SDS011;57054;51.978;4.498;2023-07-13T02:30:23;3.80;;;1.45;;
69783;SDS011;57054;51.978;4.498;2023-07-13T02:32:50;4.38;;;1.80;;
69783;SDS011;57054;51.978;4.498;2023-07-13T02:35:15;3.33;;;1.38;;
69783;SDS011;57054;51.978;4.498;2023-07-13T02:37:41;7.95;;;1.98;;
69783;SDS011;57054;51.978;4.498;2023-07-13T02:40:06;7.57;;;2.00;;
69783;SDS011;57054;51.978;4.498;2023-07-13T02:42:34;5.10;;;2.10;;
69783;SDS011;57054;51.978;4.498;2023-07-13T02:44:59;6.72;;;1.75;;
69783;SDS011;57054;51.978;4.498;2023-07-13T02:47:25;6.47;;;2.33;;
69783;SDS011;57054;51.978;4.498;2023-07-13T02:49:51;4.68;;;2.30;;
69783;SDS011;57054;51.978;4.498;2023-07-13T02:52:17;4.68;;;2.10;;
69783;SDS011;57054;51.978;4.498;2023-07-13T02:54:42;5.70;;;2.05;;
69783;SDS011;57054;51.978;4.498;2023-07-13T02:57:08;7.22;;;2.42;;
69783;SDS011;57054;51.978;4.498;2023-07-13T02:59:33;5.75;;;2.20;;
69783;SDS011;57054;51.978;4.498;2023-07-13T03:02:00;7.70;;;2.25;;
69783;SDS011;57054;51.978;4.498;2023-07-13T03:04:27;6.18;;;2.30;;
69783;SDS011;57054;51.978;4.498;2023-07-13T03:06:52;12.20;;;3.00;;
69783;SDS011;57054;51.978;4.498;2023-07-13T03:09:17;5.05;;;2.10;;
69783;SDS011;57054;51.978;4.498;2023-07-13T03:11:43;8.55;;;2.65;;
69783;SDS011;57054;51.978;4.498;2023-07-13T03:14:08;10.38;;;2.50;;
69783;SDS011;57054;51.978;4.498;2023-07-13T03:16:34;9.43;;;2.38;;
69783;SDS011;57054;51.978;4.498;2023-07-13T03:18:59;9.25;;;2.97;;
69783;SDS011;57054;51.978;4.498;2023-07-13T03:21:24;7.88;;;2.17;;
69783;SDS011;57054;51.978;4.498;2023-07-13T03:23:50;8.88;;;2.30;;
69783;SDS011;57054;51.978;4.498;2023-07-13T03:26:19;12.57;;;3.13;;
69783;SDS011;57054;51.978;4.498;2023-07-13T03:28:45;10.93;;;2.40;;
69783;SDS011;57054;51.978;4.498;2023-07-13T03:31:12;5.15;;;2.38;;
69783;SDS011;57054;51.978;4.498;2023-07-13T03:33:39;12.43;;;3.17;;
69783;SDS011;57054;51.978;4.498;2023-07-13T03:36:05;8.75;;;2.67;;
69783;SDS011;57054;51.978;4.498;2023-07-13T03:38:33;7.80;;;2.50;;
69783;SDS011;57054;51.978;4.498;2023-07-13T03:40:58;13.55;;;2.95;;
69783;SDS011;57054;51.978;4.498;2023-07-13T03:43:25;6.43;;;2.30;;
69783;SDS011;57054;51.978;4.498;2023-07-13T03:45:50;9.98;;;2.45;;
69783;SDS011;57054;51.978;4.498;2023-07-13T03:48:15;5.57;;;2.45;;
69783;SDS011;57054;51.978;4.498;2023-07-13T03:50:41;7.18;;;2.40;;
69783;SDS011;57054;51.978;4.498;2023-07-13T03:53:06;7.05;;;2.45;;
69783;SDS011;57054;51.978;4.498;2023-07-13T03:55:32;7.57;;;2.05;;
69783;SDS011;57054;51.978;4.498;2023-07-13T03:57:59;6.90;;;2.28;;
69783;SDS011;57054;51.978;4.498;2023-07-13T04:00:45;6.40;;;2.08;;
69783;SDS011;57054;51.978;4.498;2023-07-13T04:03:10;5.75;;;2.03;;
69783;SDS011;57054;51.978;4.498;2023-07-13T04:05:36;3.15;;;1.92;;
69783;SDS011;57054;51.978;4.498;2023-07-13T04:08:01;8.20;;;2.42;;
69783;SDS011;57054;51.978;4.498;2023-07-13T04:10:26;5.75;;;2.22;;
69783;SDS011;57054;51.978;4.498;2023-07-13T04:12:52;9.82;;;2.42;;
69783;SDS011;57054;51.978;4.498;2023-07-13T04:15:17;6.95;;;2.00;;
69783;SDS011;57054;51.978;4.498;2023-07-13T04:17:42;9.65;;;2.47;;
69783;SDS011;57054;51.978;4.498;2023-07-13T04:20:08;8.93;;;2.00;;
69783;SDS011;57054;51.978;4.498;2023-07-13T04:22:33;8.90;;;2.30;;
69783;SDS011;57054;51.978;4.498;2023-07-13T04:24:59;5.72;;;2.08;;
69783;SDS011;57054;51.978;4.498;2023-07-13T04:27:24;6.93;;;2.10;;
69783;SDS011;57054;51.978;4.498;2023-07-13T04:29:49;5.72;;;2.05;;
69783;SDS011;57054;51.978;4.498;2023-07-13T04:32:15;4.85;;;2.17;;
69783;SDS011;57054;51.978;4.498;2023-07-13T04:34:41;8.40;;;2.50;;
69783;SDS011;57054;51.978;4.498;2023-07-13T04:37:06;6.13;;;2.20;;
69783;SDS011;57054;51.978;4.498;2023-07-13T04:39:32;10.52;;;2.20;;
69783;SDS011;57054;51.978;4.498;2023-07-13T04:41:57;9.90;;;2.03;;
69783;SDS011;57054;51.978;4.498;2023-07-13T04:44:23;8.52;;;2.90;;
69783;SDS011;57054;51.978;4.498;2023-07-13T04:46:48;8.25;;;2.17;;
69783;SDS011;57054;51.978;4.498;2023-07-13T04:49:13;2.90;;;1.73;;
69783;SDS011;57054;51.978;4.498;2023-07-13T04:51:39;4.65;;;1.80;;
69783;SDS011;57054;51.978;4.498;2023-07-13T04:54:04;6.07;;;2.40;;
69783;SDS011;57054;51.978;4.498;2023-07-13T04:56:30;8.23;;;2.33;;
69783;SDS011;57054;51.978;4.498;2023-07-13T04:58:55;9.80;;;2.30;;
69783;SDS011;57054;51.978;4.498;2023-07-13T05:01:20;5.00;;;2.00;;
69783;SDS011;57054;51.978;4.498;2023-07-13T05:03:46;7.68;;;2.72;;
69783;SDS011;57054;51.978;4.498;2023-07-13T05:06:11;9.82;;;2.33;;
69783;SDS011;57054;51.978;4.498;2023-07-13T05:08:38;4.65;;;2.05;;
69783;SDS011;57054;51.978;4.498;2023-07-13T05:11:04;5.60;;;2.05;;
69783;SDS011;57054;51.978;4.498;2023-07-13T05:13:30;5.00;;;1.58;;
69783;SDS011;57054;51.978;4.498;2023-07-13T05:15:59;4.82;;;2.00;;
69783;SDS011;57054;51.978;4.498;2023-07-13T05:18:26;4.13;;;1.70;;
69783;SDS011;57054;51.978;4.498;2023-07-13T05:21:25;5.72;;;1.90;;
69783;SDS011;57054;51.978;4.498;2023-07-13T05:23:43;5.15;;;1.58;;
69783;SDS011;57054;51.978;4.498;2023-07-13T05:26:09;5.70;;;2.15;;
69783;SDS011;57054;51.978;4.498;2023-07-13T05:28:34;8.05;;;1.98;;
69783;SDS011;57054;51.978;4.498;2023-07-13T05:31:00;4.28;;;1.98;;
69783;SDS011;57054;51.978;4.498;2023-07-13T05:33:25;5.82;;;2.15;;
69783;SDS011;57054;51.978;4.498;2023-07-13T05:35:52;7.05;;;2.28;;
69783;SDS011;57054;51.978;4.498;2023-07-13T05:38:17;5.30;;;2.17;;
69783;SDS011;57054;51.978;4.498;2023-07-13T05:40:43;7.53;;;2.13;;
69783;SDS011;57054;51.978;4.498;2023-07-13T05:43:09;5.20;;;1.73;;
69783;SDS011;57054;51.978;4.498;2023-07-13T05:45:35;10.20;;;1.83;;
69783;SDS011;57054;51.978;4.498;2023-07-13T05:48:00;4.32;;;1.80;;
69783;SDS011;57054;51.978;4.498;2023-07-13T05:50:25;10.27;;;2.60;;
69783;SDS011;57054;51.978;4.498;2023-07-13T05:52:51;4.82;;;2.30;;
69783;SDS011;57054;51.978;4.498;2023-07-13T05:55:17;8.77;;;2.40;;
69783;SDS011;57054;51.978;4.498;2023-07-13T05:57:43;8.30;;;2.60;;
69783;SDS011;57054;51.978;4.498;2023-07-13T06:00:08;12.93;;;2.78;;
69783;SDS011;57054;51.978;4.498;2023-07-13T06:02:34;8.02;;;2.50;;
69783;SDS011;57054;51.978;4.498;2023-07-13T06:05:00;7.75;;;2.15;;
69783;SDS011;57054;51.978;4.498;2023-07-13T06:07:25;6.28;;;2.08;;
69783;SDS011;57054;51.978;4.498;2023-07-13T06:09:51;6.93;;;2.25;;
69783;SDS011;57054;51.978;4.498;2023-07-13T06:12:16;3.78;;;1.85;;
69783;SDS011;57054;51.978;4.498;2023-07-13T06:14:42;5.53;;;2.03;;
69783;SDS011;57054;51.978;4.498;2023-07-13T06:17:07;4.43;;;2.10;;
69783;SDS011;57054;51.978;4.498;2023-07-13T06:19:33;4.22;;;1.95;;
69783;SDS011;57054;51.978;4.498;2023-07-13T06:21:59;6.90;;;2.05;;
69783;SDS011;57054;51.978;4.498;2023-07-13T06:24:24;4.22;;;1.80;;
69783;SDS011;57054;51.978;4.498;2023-07-13T06:26:50;5.47;;;1.88;;
69783;SDS011;57054;51.978;4.498;2023-07-13T06:29:15;7.18;;;2.10;;
69783;SDS011;57054;51.978;4.498;2023-07-13T06:31:41;5.78;;;2.08;;
69783;SDS011;57054;51.978;4.498;2023-07-13T06:34:06;5.28;;;2.03;;
69783;SDS011;57054;51.978;4.498;2023-07-13T06:36:32;7.25;;;2.22;;
69783;SDS011;57054;51.978;4.498;2023-07-13T06:38:57;3.40;;;1.92;;
69783;SDS011;57054;51.978;4.498;2023-07-13T06:41:23;4.50;;;2.03;;
69783;SDS011;57054;51.978;4.498;2023-07-13T06:43:51;5.50;;;2.25;;
69783;SDS011;57054;51.978;4.498;2023-07-13T06:46:16;9.25;;;2.40;;
69783;SDS011;57054;51.978;4.498;2023-07-13T06:48:42;4.72;;;2.28;;
69783;SDS011;57054;51.978;4.498;2023-07-13T06:51:07;5.63;;;2.17;;
69783;SDS011;57054;51.978;4.498;2023-07-13T06:53:33;4.38;;;2.15;;
69783;SDS011;57054;51.978;4.498;2023-07-13T06:55:58;4.32;;;2.17;;
69783;SDS011;57054;51.978;4.498;2023-07-13T06:58:24;3.55;;;1.70;;
69783;SDS011;57054;51.978;4.498;2023-07-13T07:00:52;3.10;;;1.50;;
69783;SDS011;57054;51.978;4.498;2023-07-13T07:03:18;4.38;;;1.85;;
69783;SDS011;57054;51.978;4.498;2023-07-13T07:05:43;5.25;;;2.40;;
69783;SDS011;57054;51.978;4.498;2023-07-13T07:08:09;5.78;;;2.35;;
69783;SDS011;57054;51.978;4.498;2023-07-13T07:10:35;7.50;;;2.20;;
69783;SDS011;57054;51.978;4.498;2023-07-13T07:13:01;3.92;;;1.80;;
69783;SDS011;57054;51.978;4.498;2023-07-13T07:15:27;5.30;;;2.03;;
69783;SDS011;57054;51.978;4.498;2023-07-13T07:17:53;6.97;;;2.08;;
69783;SDS011;57054;51.978;4.498;2023-07-13T07:20:18;1.92;;;1.67;;
69783;SDS011;57054;51.978;4.498;2023-07-13T07:22:45;2.15;;;1.60;;
69783;SDS011;57054;51.978;4.498;2023-07-13T07:25:10;2.90;;;1.75;;
69783;SDS011;57054;51.978;4.498;2023-07-13T07:27:36;5.63;;;2.53;;
69783;SDS011;57054;51.978;4.498;2023-07-13T07:30:01;4.20;;;2.13;;
69783;SDS011;57054;51.978;4.498;2023-07-13T07:32:28;7.32;;;2.00;;
69783;SDS011;57054;51.978;4.498;2023-07-13T07:34:55;3.08;;;1.83;;
69783;SDS011;57054;51.978;4.498;2023-07-13T07:37:21;2.45;;;1.50;;
69783;SDS011;57054;51.978;4.498;2023-07-13T07:39:47;4.05;;;2.03;;
69783;SDS011;57054;51.978;4.498;2023-07-13T07:42:13;4.40;;;2.08;;
69783;SDS011;57054;51.978;4.498;2023-07-13T07:44:39;4.88;;;2.08;;
69783;SDS011;57054;51.978;4.498;2023-07-13T07:47:06;10.55;;;2.10;;
69783;SDS011;57054;51.978;4.498;2023-07-13T07:49:32;4.85;;;2.63;;
69783;SDS011;57054;51.978;4.498;2023-07-13T07:51:57;4.38;;;2.38;;
69783;SDS011;57054;51.978;4.498;2023-07-13T07:54:23;6.13;;;2.10;;
69783;SDS011;57054;51.978;4.498;2023-07-13T07:56:48;8.32;;;2.28;;
69783;SDS011;57054;51.978;4.498;2023-07-13T07:59:14;4.78;;;2.03;;
69783;SDS011;57054;51.978;4.498;2023-07-13T08:01:39;3.47;;;1.65;;
69783;SDS011;57054;51.978;4.498;2023-07-13T08:04:04;6.38;;;1.98;;
69783;SDS011;57054;51.978;4.498;2023-07-13T08:06:31;6.00;;;2.22;;
69783;SDS011;57054;51.978;4.498;2023-07-13T08:08:58;6.32;;;2.38;;
69783;SDS011;57054;51.978;4.498;2023-07-13T08:11:24;8.65;;;2.20;;
69783;SDS011;57054;51.978;4.498;2023-07-13T08:13:49;4.35;;;2.15;;
69783;SDS011;57054;51.978;4.498;2023-07-13T08:16:15;3.78;;;2.13;;
69783;SDS011;57054;51.978;4.498;2023-07-13T08:18:40;5.18;;;2.15;;
69783;SDS011;57054;51.978;4.498;2023-07-13T08:21:06;3.85;;;2.05;;
69783;SDS011;57054;51.978;4.498;2023-07-13T08:23:32;5.50;;;2.25;;
69783;SDS011;57054;51.978;4.498;2023-07-13T08:25:58;2.65;;;1.83;;
69783;SDS011;57054;51.978;4.498;2023-07-13T08:28:26;4.72;;;2.15;;
69783;SDS011;57054;51.978;4.498;2023-07-13T08:30:52;5.30;;;2.40;;
69783;SDS011;57054;51.978;4.498;2023-07-13T08:33:17;3.63;;;1.95;;
69783;SDS011;57054;51.978;4.498;2023-07-13T08:35:48;4.32;;;2.00;;
69783;SDS011;57054;51.978;4.498;2023-07-13T08:38:14;4.38;;;1.80;;
69783;SDS011;57054;51.978;4.498;2023-07-13T08:40:40;1.92;;;1.73;;
69783;SDS011;57054;51.978;4.498;2023-07-13T08:43:08;2.72;;;1.77;;
69783;SDS011;57054;51.978;4.498;2023-07-13T08:45:47;4.30;;;1.63;;
69783;SDS011;57054;51.978;4.498;2023-07-13T08:50:50;4.68;;;2.20;;
69783;SDS011;57054;51.978;4.498;2023-07-13T08:53:20;2.22;;;1.90;;
69783;SDS011;57054;51.978;4.498;2023-07-13T08:55:48;3.45;;;1.67;;
69783;SDS011;57054;51.978;4.498;2023-07-13T08:58:18;3.25;;;1.70;;
69783;SDS011;57054;51.978;4.498;2023-07-13T09:05:45;5.75;;;2.47;;
69783;SDS011;57054;51.978;4.498;2023-07-13T09:11:00;4.28;;;2.30;;
69783;SDS011;57054;51.978;4.498;2023-07-13T09:13:30;6.80;;;2.00;;
69783;SDS011;57054;51.978;4.498;2023-07-13T09:16:02;8.35;;;2.55;;
69783;SDS011;57054;51.978;4.498;2023-07-13T09:18:36;7.15;;;2.78;;
69783;SDS011;57054;51.978;4.498;2023-07-13T09:21:05;2.53;;;2.00;;
69783;SDS011;57054;51.978;4.498;2023-07-13T09:23:36;3.67;;;1.80;;
69783;SDS011;57054;51.978;4.498;2023-07-13T09:26:18;3.63;;;2.05;;
69783;SDS011;57054;51.978;4.498;2023-07-13T09:28:49;5.95;;;1.88;;
69783;SDS011;57054;51.978;4.498;2023-07-13T09:31:23;1.77;;;1.60;;
69783;SDS011;57054;51.978;4.498;2023-07-13T09:33:54;2.70;;;1.52;;
69783;SDS011;57054;51.978;4.498;2023-07-13T09:36:30;3.95;;;1.90;;
69783;SDS011;57054;51.978;4.498;2023-07-13T09:41:47;5.00;;;1.95;;
69783;SDS011;57054;51.978;4.498;2023-07-13T09:44:16;3.25;;;1.83;;
69783;SDS011;57054;51.978;4.498;2023-07-13T09:46:44;7.28;;;2.13;;
69783;SDS011;57054;51.978;4.498;2023-07-13T09:49:11;6.23;;;2.20;;
69783;SDS011;57054;51.978;4.498;2023-07-13T09:51:37;3.75;;;2.10;;
69783;SDS011;57054;51.978;4.498;2023-07-13T09:54:04;3.65;;;1.92;;
69783;SDS011;57054;51.978;4.498;2023-07-13T09:56:29;4.13;;;2.20;;
69783;SDS011;57054;51.978;4.498;2023-07-13T09:58:56;6.43;;;2.40;;
69783;SDS011;57054;51.978;4.498;2023-07-13T10:01:32;6.60;;;2.30;;
69783;SDS011;57054;51.978;4.498;2023-07-13T10:03:59;8.15;;;2.53;;
69783;SDS011;57054;51.978;4.498;2023-07-13T10:06:25;6.85;;;2.70;;
69783;SDS011;57054;51.978;4.498;2023-07-13T10:08:55;6.78;;;2.53;;
69783;SDS011;57054;51.978;4.498;2023-07-13T10:11:22;6.47;;;2.70;;
69783;SDS011;57054;51.978;4.498;2023-07-13T10:13:55;4.53;;;2.20;;
69783;SDS011;57054;51.978;4.498;2023-07-13T10:16:25;3.55;;;2.10;;
69783;SDS011;57054;51.978;4.498;2023-07-13T10:18:58;6.75;;;2.45;;
69783;SDS011;57054;51.978;4.498;2023-07-13T10:21:28;3.75;;;2.33;;
69783;SDS011;57054;51.978;4.498;2023-07-13T10:24:02;3.55;;;1.95;;
69783;SDS011;57054;51.978;4.498;2023-07-13T10:26:36;10.13;;;2.50;;
69783;SDS011;57054;51.978;4.498;2023-07-13T10:29:08;4.03;;;2.20;;
69783;SDS011;57054;51.978;4.498;2023-07-13T10:31:37;4.95;;;1.67;;
69783;SDS011;57054;51.978;4.498;2023-07-13T10:34:03;4.70;;;1.90;;
69783;SDS011;57054;51.978;4.498;2023-07-13T10:37:03;5.18;;;2.00;;
69783;SDS011;57054;51.978;4.498;2023-07-13T10:39:24;3.25;;;1.75;;
69783;SDS011;57054;51.978;4.498;2023-07-13T10:42:00;5.78;;;1.60;;
69783;SDS011;57054;51.978;4.498;2023-07-13T10:44:31;7.95;;;1.70;;
69783;SDS011;57054;51.978;4.498;2023-07-13T10:47:01;3.88;;;2.17;;
69783;SDS011;57054;51.978;4.498;2023-07-13T10:49:31;6.50;;;2.30;;
69783;SDS011;57054;51.978;4.498;2023-07-13T10:51:58;4.43;;;2.00;;
69783;SDS011;57054;51.978;4.498;2023-07-13T10:54:27;3.10;;;1.98;;
69783;SDS011;57054;51.978;4.498;2023-07-13T10:57:13;2.78;;;2.30;;
69783;SDS011;57054;51.978;4.498;2023-07-13T10:59:42;3.20;;;1.60;;
69783;SDS011;57054;51.978;4.498;2023-07-13T11:02:21;2.63;;;1.67;;
69783;SDS011;57054;51.978;4.498;2023-07-13T11:04:51;2.80;;;2.17;;
69783;SDS011;57054;51.978;4.498;2023-07-13T11:07:20;3.13;;;2.00;;
69783;SDS011;57054;51.978;4.498;2023-07-13T11:09:51;2.83;;;1.98;;
69783;SDS011;57054;51.978;4.498;2023-07-13T11:19:53;1.77;;;1.57;;
69783;SDS011;57054;51.978;4.498;2023-07-13T11:22:23;1.73;;;1.63;;
69783;SDS011;57054;51.978;4.498;2023-07-13T11:25:01;4.68;;;1.60;;
69783;SDS011;57054;51.978;4.498;2023-07-13T11:27:45;1.92;;;1.73;;
69783;SDS011;57054;51.978;4.498;2023-07-13T11:31:15;3.47;;;2.17;;
69783;SDS011;57054;51.978;4.498;2023-07-13T11:38:33;5.50;;;1.90;;
69783;SDS011;57054;51.978;4.498;2023-07-13T11:41:04;2.80;;;1.67;;
69783;SDS011;57054;51.978;4.498;2023-07-13T11:43:32;3.58;;;1.85;;
69783;SDS011;57054;51.978;4.498;2023-07-13T11:46:11;2.03;;;1.60;;
69783;SDS011;57054;51.978;4.498;2023-07-13T11:48:41;1.60;;;1.50;;
69783;SDS011;57054;51.978;4.498;2023-07-13T11:51:07;5.00;;;1.85;;
69783;SDS011;57054;51.978;4.498;2023-07-13T11:53:51;2.80;;;1.90;;
69783;SDS011;57054;51.978;4.498;2023-07-13T11:56:18;3.55;;;1.60;;
69783;SDS011;57054;51.978;4.498;2023-07-13T11:58:47;2.00;;;1.60;;
69783;SDS011;57054;51.978;4.498;2023-07-13T12:01:18;2.60;;;1.70;;
69783;SDS011;57054;51.978;4.498;2023-07-13T12:03:47;5.55;;;1.75;;
69783;SDS011;57054;51.978;4.498;2023-07-13T12:06:32;3.33;;;1.70;;
69783;SDS011;57054;51.978;4.498;2023-07-13T12:09:09;5.18;;;1.70;;
69783;SDS011;57054;51.978;4.498;2023-07-13T12:11:39;4.85;;;2.10;;
69783;SDS011;57054;51.978;4.498;2023-07-13T12:14:05;4.10;;;1.98;;
69783;SDS011;57054;51.978;4.498;2023-07-13T12:16:31;4.00;;;1.80;;
69783;SDS011;57054;51.978;4.498;2023-07-13T12:19:01;3.63;;;1.60;;
69783;SDS011;57054;51.978;4.498;2023-07-13T12:21:38;1.88;;;1.40;;
69783;SDS011;57054;51.978;4.498;2023-07-13T12:24:05;2.08;;;1.90;;
69783;SDS011;57054;51.978;4.498;2023-07-13T12:26:40;3.65;;;2.15;;
69783;SDS011;57054;51.978;4.498;2023-07-13T12:29:05;5.53;;;2.08;;
69783;SDS011;57054;51.978;4.498;2023-07-13T12:34:01;4.15;;;1.88;;
69783;SDS011;57054;51.978;4.498;2023-07-13T12:36:41;1.55;;;1.45;;
69783;SDS011;57054;51.978;4.498;2023-07-13T12:39:14;4.18;;;1.60;;
69783;SDS011;57054;51.978;4.498;2023-07-13T12:41:42;2.55;;;1.33;;
69783;SDS011;57054;51.978;4.498;2023-07-13T12:44:10;3.83;;;1.50;;
69783;SDS011;57054;51.978;4.498;2023-07-13T12:46:38;3.17;;;1.60;;
69783;SDS011;57054;51.978;4.498;2023-07-13T12:49:04;2.97;;;1.70;;
69783;SDS011;57054;51.978;4.498;2023-07-13T12:51:32;1.98;;;1.45;;
69783;SDS011;57054;51.978;4.498;2023-07-13T12:54:05;2.20;;;1.55;;
69783;SDS011;57054;51.978;4.498;2023-07-13T12:56:51;1.90;;;1.48;;
69783;SDS011;57054;51.978;4.498;2023-07-13T12:59:19;6.50;;;1.67;;
69783;SDS011;57054;51.978;4.498;2023-07-13T13:01:46;2.25;;;1.55;;
69783;SDS011;57054;51.978;4.498;2023-07-13T13:04:14;3.30;;;1.50;;
69783;SDS011;57054;51.978;4.498;2023-07-13T13:06:40;1.73;;;1.35;;
69783;SDS011;57054;51.978;4.498;2023-07-13T13:09:12;1.67;;;1.30;;
69783;SDS011;57054;51.978;4.498;2023-07-13T13:11:38;2.20;;;1.58;;
69783;SDS011;57054;51.978;4.498;2023-07-13T13:14:05;1.90;;;1.50;;
69783;SDS011;57054;51.978;4.498;2023-07-13T13:16:32;1.80;;;1.30;;
69783;SDS011;57054;51.978;4.498;2023-07-13T13:19:01;1.85;;;1.25;;
69783;SDS011;57054;51.978;4.498;2023-07-13T13:21:42;4.93;;;1.90;;
69783;SDS011;57054;51.978;4.498;2023-07-13T13:24:13;5.97;;;1.80;;
69783;SDS011;57054;51.978;4.498;2023-07-13T13:26:42;3.65;;;1.50;;
69783;SDS011;57054;51.978;4.498;2023-07-13T13:29:13;4.00;;;1.65;;
69783;SDS011;57054;51.978;4.498;2023-07-13T13:31:41;4.13;;;1.35;;
69783;SDS011;57054;51.978;4.498;2023-07-13T13:34:08;1.30;;;1.20;;
69783;SDS011;57054;51.978;4.498;2023-07-13T13:36:35;2.83;;;1.60;;
69783;SDS011;57054;51.978;4.498;2023-07-13T13:39:00;2.05;;;1.17;;
69783;SDS011;57054;51.978;4.498;2023-07-13T13:41:27;1.20;;;1.10;;
69783;SDS011;57054;51.978;4.498;2023-07-13T13:43:53;3.67;;;1.58;;
69783;SDS011;57054;51.978;4.498;2023-07-13T13:46:19;1.88;;;1.00;;
69783;SDS011;57054;51.978;4.498;2023-07-13T13:48:47;2.22;;;1.20;;
69783;SDS011;57054;51.978;4.498;2023-07-13T13:53:49;2.42;;;1.63;;
69783;SDS011;57054;51.978;4.498;2023-07-13T13:56:15;1.30;;;0.90;;
69783;SDS011;57054;51.978;4.498;2023-07-13T13:58:42;2.25;;;1.35;;
69783;SDS011;57054;51.978;4.498;2023-07-13T14:01:18;2.75;;;1.23;;
69783;SDS011;57054;51.978;4.498;2023-07-13T14:03:45;1.20;;;1.10;;
69783;SDS011;57054;51.978;4.498;2023-07-13T14:06:12;2.75;;;1.38;;
69783;SDS011;57054;51.978;4.498;2023-07-13T14:08:38;1.23;;;1.05;;
69783;SDS011;57054;51.978;4.498;2023-07-13T14:11:04;3.08;;;1.10;;
69783;SDS011;57054;51.978;4.498;2023-07-13T14:13:42;1.65;;;1.00;;
69783;SDS011;57054;51.978;4.498;2023-07-13T14:16:12;1.10;;;0.95;;
69783;SDS011;57054;51.978;4.498;2023-07-13T14:18:46;4.20;;;1.15;;
69783;SDS011;57054;51.978;4.498;2023-07-13T14:21:13;1.60;;;1.00;;
69783;SDS011;57054;51.978;4.498;2023-07-13T14:23:39;1.00;;;1.00;;
69783;SDS011;57054;51.978;4.498;2023-07-13T14:26:12;2.45;;;1.10;;
69783;SDS011;57054;51.978;4.498;2023-07-13T14:28:41;1.33;;;1.15;;
69783;SDS011;57054;51.978;4.498;2023-07-13T14:31:08;1.95;;;1.00;;
69783;SDS011;57054;51.978;4.498;2023-07-13T14:33:34;2.35;;;1.23;;
69783;SDS011;57054;51.978;4.498;2023-07-13T14:36:00;1.55;;;1.38;;
69783;SDS011;57054;51.978;4.498;2023-07-13T14:38:25;2.15;;;1.02;;
69783;SDS011;57054;51.978;4.498;2023-07-13T14:40:51;1.15;;;1.05;;
69783;SDS011;57054;51.978;4.498;2023-07-13T14:43:17;1.58;;;1.20;;
69783;SDS011;57054;51.978;4.498;2023-07-13T14:45:44;1.42;;;1.25;;
69783;SDS011;57054;51.978;4.498;2023-07-13T14:48:18;2.55;;;1.17;;
69783;SDS011;57054;51.978;4.498;2023-07-13T14:50:49;1.63;;;1.10;;
69783;SDS011;57054;51.978;4.498;2023-07-13T14:53:18;2.20;;;1.00;;
69783;SDS011;57054;51.978;4.498;2023-07-13T14:55:44;2.15;;;1.50;;
69783;SDS011;57054;51.978;4.498;2023-07-13T14:58:09;2.50;;;1.20;;
69783;SDS011;57054;51.978;4.498;2023-07-13T15:00:35;3.50;;;1.40;;
69783;SDS011;57054;51.978;4.498;2023-07-13T15:03:02;1.63;;;1.30;;
69783;SDS011;57054;51.978;4.498;2023-07-13T15:05:30;1.83;;;1.00;;
69783;SDS011;57054;51.978;4.498;2023-07-13T15:08:00;2.03;;;1.20;;
69783;SDS011;57054;51.978;4.498;2023-07-13T15:10:32;1.85;;;0.90;;
69783;SDS011;57054;51.978;4.498;2023-07-13T15:13:17;3.38;;;1.17;;
69783;SDS011;57054;51.978;4.498;2023-07-13T15:15:46;2.75;;;1.30;;
69783;SDS011;57054;51.978;4.498;2023-07-13T15:18:14;1.52;;;1.05;;
69783;SDS011;57054;51.978;4.498;2023-07-13T15:23:10;2.40;;;1.23;;
69783;SDS011;57054;51.978;4.498;2023-07-13T15:25:36;3.38;;;1.52;;